createdAt,value
2016-03-03T00:00:00.158Z,0
2016-03-03T00:01:00.128Z,0
2016-03-03T00:02:00.084Z,0
2016-03-03T00:03:00.055Z,0
2016-03-03T00:04:00.043Z,0
2016-03-03T00:04:59.999Z,0
2016-03-03T00:05:59.969Z,0
2016-03-03T00:06:59.941Z,0
2016-03-03T00:07:59.929Z,0
2016-03-03T00:08:59.899Z,0
2016-03-03T00:09:59.715Z,0
2016-03-03T00:10:59.687Z,0
2016-03-03T00:11:59.798Z,0
2016-03-03T00:12:59.817Z,0
2016-03-03T00:13:59.757Z,0
2016-03-03T00:14:59.729Z,0
2016-03-03T00:15:59.684Z,0
2016-03-03T00:16:59.656Z,0
2016-03-03T00:17:59.627Z,0
2016-03-03T00:18:59.598Z,0
2016-03-03T00:19:59.570Z,0
2016-03-03T00:20:59.542Z,0
2016-03-03T00:21:59.528Z,0
2016-03-03T00:22:59.484Z,0
2016-03-03T00:23:59.456Z,0
2016-03-03T00:24:59.427Z,0
2016-03-03T00:25:59.415Z,0
2016-03-03T00:26:59.370Z,0
2016-03-03T00:27:59.373Z,0
2016-03-03T00:28:59.313Z,0
2016-03-03T00:29:59.284Z,0
2016-03-03T00:30:59.256Z,0
2016-03-03T00:31:59.227Z,0
2016-03-03T00:32:59.214Z,0
2016-03-03T00:33:59.169Z,0
2016-03-03T00:34:59.142Z,0
2016-03-03T00:35:59.113Z,0
2016-03-03T00:36:58.913Z,0
2016-03-03T00:37:59.055Z,0
2016-03-03T00:38:59.027Z,0
2016-03-03T00:39:58.921Z,0
2016-03-03T00:40:58.970Z,0
2016-03-03T00:41:58.926Z,0
2016-03-03T00:42:58.929Z,0
2016-03-03T00:43:58.868Z,0
2016-03-03T00:44:58.841Z,0
2016-03-03T00:45:58.827Z,0
2016-03-03T00:46:58.798Z,0
2016-03-03T00:47:58.755Z,0
2016-03-03T00:48:58.726Z,0
2016-03-03T00:49:58.697Z,0
2016-03-03T00:50:58.684Z,0
2016-03-03T00:51:58.641Z,0
2016-03-03T00:52:58.612Z,0
2016-03-03T00:53:58.614Z,0
2016-03-03T00:54:58.555Z,0
2016-03-03T00:55:58.526Z,0
2016-03-03T00:56:58.514Z,0
2016-03-03T00:57:58.470Z,0
2016-03-03T00:58:58.456Z,0
2016-03-03T00:59:58.428Z,0
2016-03-03T01:00:58.383Z,0
2016-03-03T01:01:58.355Z,0
2016-03-03T01:02:58.327Z,0
2016-03-03T01:03:58.297Z,0
2016-03-03T01:04:58.270Z,0
2016-03-03T01:05:58.256Z,0
2016-03-03T01:06:58.197Z,0
2016-03-03T01:07:58.183Z,0
2016-03-03T01:08:58.138Z,0
2016-03-03T01:09:57.986Z,0
2016-03-03T01:10:58.082Z,0
2016-03-03T01:11:58.054Z,0
2016-03-03T01:12:58.072Z,0
2016-03-03T01:13:57.997Z,0
2016-03-03T01:14:57.968Z,0
2016-03-03T01:15:57.940Z,0
2016-03-03T01:16:57.927Z,0
2016-03-03T01:17:57.898Z,0
2016-03-03T01:18:57.854Z,0
2016-03-03T01:19:57.826Z,0
2016-03-03T01:20:57.796Z,0
2016-03-03T01:21:57.049Z,0
2016-03-03T01:22:57.740Z,0
2016-03-03T01:23:57.711Z,0
2016-03-03T01:24:57.682Z,0
2016-03-03T01:25:57.653Z,0
2016-03-03T01:26:57.625Z,0
2016-03-03T01:27:56.862Z,0
2016-03-03T01:28:57.584Z,0
2016-03-03T01:29:57.540Z,0
2016-03-03T01:30:57.495Z,0
2016-03-03T01:31:57.467Z,0
2016-03-03T01:32:57.453Z,0
2016-03-03T01:33:57.410Z,0
2016-03-03T01:34:57.380Z,0
2016-03-03T01:35:57.368Z,0
2016-03-03T01:36:57.339Z,0
2016-03-03T01:37:57.296Z,0
2016-03-03T01:38:57.298Z,0
2016-03-03T01:39:57.254Z,0
2016-03-03T01:40:57.210Z,0
2016-03-03T01:41:57.181Z,0
2016-03-03T01:42:56.996Z,0
2016-03-03T01:43:57.155Z,0
2016-03-03T01:44:57.096Z,0
2016-03-03T01:45:57.051Z,0
2016-03-03T01:46:57.039Z,0
2016-03-03T01:47:57.010Z,0
2016-03-03T01:48:56.982Z,0
2016-03-03T01:49:56.937Z,0
2016-03-03T01:50:56.909Z,0
2016-03-03T01:51:56.880Z,0
2016-03-03T01:52:56.868Z,0
2016-03-03T01:53:56.679Z,0
2016-03-03T01:54:56.807Z,0
2016-03-03T01:55:56.795Z,0
2016-03-03T01:56:56.750Z,0
2016-03-03T01:57:56.736Z,0
2016-03-03T01:58:56.692Z,0
2016-03-03T01:59:56.649Z,0
2016-03-03T02:00:56.620Z,0
2016-03-03T02:01:56.592Z,0
2016-03-03T02:02:56.563Z,0
2016-03-03T02:03:56.534Z,0
2016-03-03T02:04:56.521Z,0
2016-03-03T02:05:56.493Z,0
2016-03-03T02:06:56.449Z,0
2016-03-03T02:07:56.421Z,0
2016-03-03T02:08:56.392Z,0
2016-03-03T02:09:56.379Z,0
2016-03-03T02:10:56.335Z,0
2016-03-03T02:11:56.322Z,0
2016-03-03T02:12:56.278Z,0
2016-03-03T02:13:56.249Z,0
2016-03-03T02:14:56.220Z,0
2016-03-03T02:15:56.192Z,0
2016-03-03T02:16:56.163Z,0
2016-03-03T02:17:56.135Z,0
2016-03-03T02:18:56.091Z,0
2016-03-03T02:19:56.078Z,0
2016-03-03T02:20:56.049Z,0
2016-03-03T02:21:56.020Z,0
2016-03-03T02:22:55.976Z,0
2016-03-03T02:23:55.947Z,0
2016-03-03T02:24:55.920Z,0
2016-03-03T02:25:55.890Z,0
2016-03-03T02:26:55.862Z,0
2016-03-03T02:27:55.833Z,0
2016-03-03T02:28:55.820Z,0
2016-03-03T02:29:55.775Z,0
2016-03-03T02:30:55.747Z,0
2016-03-03T02:31:55.736Z,0
2016-03-03T02:32:55.691Z,0
2016-03-03T02:33:55.662Z,0
2016-03-03T02:34:55.711Z,0
2016-03-03T02:35:55.605Z,0
2016-03-03T02:36:55.576Z,0
2016-03-03T02:37:55.547Z,0
2016-03-03T02:38:55.535Z,0
2016-03-03T02:39:55.491Z,0
2016-03-03T02:40:55.446Z,0
2016-03-03T02:41:55.433Z,0
2016-03-03T02:42:55.404Z,0
2016-03-03T02:43:55.376Z,0
2016-03-03T02:44:55.332Z,0
2016-03-03T02:45:55.319Z,0
2016-03-03T02:46:55.291Z,0
2016-03-03T02:47:55.262Z,0
2016-03-03T02:48:55.218Z,0
2016-03-03T02:49:55.198Z,0
2016-03-03T02:50:55.139Z,0
2016-03-03T02:51:55.094Z,0
2016-03-03T02:52:55.066Z,0
2016-03-03T02:53:55.021Z,0
2016-03-03T02:54:54.827Z,0
2016-03-03T02:55:54.933Z,0
2016-03-03T02:56:54.899Z,0
2016-03-03T02:57:54.865Z,0
2016-03-03T02:58:54.847Z,0
2016-03-03T02:59:54.799Z,0
2016-03-03T03:00:54.769Z,0
2016-03-03T03:01:54.738Z,0
2016-03-03T03:02:54.708Z,0
2016-03-03T03:03:54.677Z,0
2016-03-03T03:04:54.663Z,0
2016-03-03T03:05:54.633Z,0
2016-03-03T03:06:54.589Z,0
2016-03-03T03:07:54.559Z,0
2016-03-03T03:08:54.530Z,0
2016-03-03T03:09:54.502Z,0
2016-03-03T03:10:54.473Z,0
2016-03-03T03:11:54.443Z,0
2016-03-03T03:12:54.415Z,0
2016-03-03T03:13:54.386Z,0
2016-03-03T03:14:54.358Z,0
2016-03-03T03:15:54.328Z,0
2016-03-03T03:16:54.283Z,0
2016-03-03T03:17:54.271Z,0
2016-03-03T03:18:54.243Z,0
2016-03-03T03:19:54.198Z,0
2016-03-03T03:20:54.169Z,0
2016-03-03T03:21:54.157Z,0
2016-03-03T03:22:54.129Z,0
2016-03-03T03:23:54.100Z,0
2016-03-03T03:24:54.056Z,0
2016-03-03T03:25:54.027Z,0
2016-03-03T03:26:54.015Z,0
2016-03-03T03:27:53.986Z,0
2016-03-03T03:28:53.942Z,0
2016-03-03T03:29:53.929Z,0
2016-03-03T03:30:53.884Z,0
2016-03-03T03:31:53.856Z,0
2016-03-03T03:32:53.827Z,0
2016-03-03T03:33:53.815Z,0
2016-03-03T03:34:53.786Z,0
2016-03-03T03:35:53.743Z,0
2016-03-03T03:36:53.729Z,0
2016-03-03T03:37:53.701Z,0
2016-03-03T03:38:53.656Z,0
2016-03-03T03:39:53.628Z,0
2016-03-03T03:40:53.598Z,0
2016-03-03T03:41:53.570Z,0
2016-03-03T03:42:53.542Z,0
2016-03-03T03:43:53.514Z,0
2016-03-03T03:44:53.470Z,0
2016-03-03T03:45:53.441Z,0
2016-03-03T03:46:53.412Z,0
2016-03-03T03:47:53.384Z,0
2016-03-03T03:48:53.371Z,0
2016-03-03T03:49:53.327Z,0
2016-03-03T03:50:53.314Z,0
2016-03-03T03:51:53.285Z,0
2016-03-03T03:52:53.256Z,0
2016-03-03T03:53:53.213Z,0
2016-03-03T03:54:53.183Z,0
2016-03-03T03:55:53.171Z,0
2016-03-03T03:56:53.126Z,0
2016-03-03T03:57:53.113Z,0
2016-03-03T03:58:53.069Z,0
2016-03-03T03:59:53.057Z,0
2016-03-03T04:00:53.013Z,0
2016-03-03T04:01:52.984Z,0
2016-03-03T04:02:52.971Z,0
2016-03-03T04:03:52.927Z,0
2016-03-03T04:04:52.898Z,0
2016-03-03T04:05:52.729Z,0
2016-03-03T04:06:52.856Z,0
2016-03-03T04:07:52.828Z,0
2016-03-03T04:08:52.784Z,0
2016-03-03T04:09:52.770Z,0
2016-03-03T04:10:52.727Z,0
2016-03-03T04:11:52.698Z,0
2016-03-03T04:12:52.670Z,0
2016-03-03T04:13:52.657Z,0
2016-03-03T04:14:52.613Z,0
2016-03-03T04:15:52.584Z,0
2016-03-03T04:16:52.556Z,0
2016-03-03T04:17:52.542Z,0
2016-03-03T04:18:52.499Z,0
2016-03-03T04:19:52.487Z,0
2016-03-03T04:20:52.426Z,0
2016-03-03T04:21:52.403Z,0
2016-03-03T04:22:52.375Z,0
2016-03-03T04:23:52.345Z,0
2016-03-03T04:24:52.348Z,0
2016-03-03T04:25:52.288Z,0
2016-03-03T04:26:52.275Z,0
2016-03-03T04:27:52.231Z,0
2016-03-03T04:28:52.202Z,0
2016-03-03T04:29:52.175Z,0
2016-03-03T04:30:52.146Z,0
2016-03-03T04:31:52.133Z,0
2016-03-03T04:32:52.089Z,0
2016-03-03T04:33:52.091Z,0
2016-03-03T04:34:52.032Z,0
2016-03-03T04:35:52.018Z,0
2016-03-03T04:36:51.974Z,0
2016-03-03T04:37:51.977Z,0
2016-03-03T04:38:51.917Z,0
2016-03-03T04:39:51.888Z,0
2016-03-03T04:40:51.860Z,0
2016-03-03T04:41:51.832Z,0
2016-03-03T04:42:51.819Z,0
2016-03-03T04:43:51.790Z,0
2016-03-03T04:44:51.746Z,0
2016-03-03T04:45:51.701Z,0
2016-03-03T04:46:51.517Z,0
2016-03-03T04:47:51.660Z,0
2016-03-03T04:48:51.632Z,0
2016-03-03T04:49:51.587Z,0
2016-03-03T04:50:51.606Z,0
2016-03-03T04:51:51.530Z,0
2016-03-03T04:52:51.533Z,0
2016-03-03T04:53:51.473Z,0
2016-03-03T04:54:51.475Z,0
2016-03-03T04:55:51.431Z,0
2016-03-03T04:56:51.387Z,0
2016-03-03T04:57:51.359Z,0
2016-03-03T04:58:51.378Z,0
2016-03-03T04:59:51.302Z,0
2016-03-03T05:00:51.305Z,0
2016-03-03T05:01:51.089Z,0
2016-03-03T05:02:51.232Z,0
2016-03-03T05:03:51.188Z,0
2016-03-03T05:04:51.033Z,0
2016-03-03T05:05:51.130Z,0
2016-03-03T05:06:51.118Z,0
2016-03-03T05:07:51.074Z,0
2016-03-03T05:08:51.076Z,0
2016-03-03T05:09:51.016Z,0
2016-03-03T05:10:51.003Z,0
2016-03-03T05:11:50.959Z,0
2016-03-03T05:12:50.930Z,0
2016-03-03T05:13:50.917Z,0
2016-03-03T05:14:50.874Z,0
2016-03-03T05:15:50.876Z,0
2016-03-03T05:16:50.815Z,0
2016-03-03T05:17:50.787Z,0
2016-03-03T05:18:50.790Z,0
2016-03-03T05:19:50.746Z,0
2016-03-03T05:20:50.702Z,0
2016-03-03T05:21:50.673Z,0
2016-03-03T05:22:50.661Z,0
2016-03-03T05:23:50.614Z,0
2016-03-03T05:24:50.585Z,0
2016-03-03T05:25:50.557Z,0
2016-03-03T05:26:50.528Z,0
2016-03-03T05:27:50.500Z,0
2016-03-03T05:28:50.471Z,0
2016-03-03T05:29:50.442Z,0
2016-03-03T05:30:50.430Z,0
2016-03-03T05:31:50.369Z,0
2016-03-03T05:32:50.356Z,0
2016-03-03T05:33:50.328Z,0
2016-03-03T05:34:50.299Z,0
2016-03-03T05:35:50.286Z,0
2016-03-03T05:36:50.227Z,0
2016-03-03T05:37:50.057Z,0
2016-03-03T05:38:50.185Z,0
2016-03-03T05:39:50.172Z,0
2016-03-03T05:40:50.144Z,0
2016-03-03T05:41:50.100Z,0
2016-03-03T05:42:50.055Z,0
2016-03-03T05:43:50.043Z,0
2016-03-03T05:44:50.013Z,0
2016-03-03T05:45:49.985Z,0
2016-03-03T05:46:49.957Z,0
2016-03-03T05:47:49.928Z,0
2016-03-03T05:48:49.884Z,0
2016-03-03T05:49:49.871Z,0
2016-03-03T05:50:49.859Z,0
2016-03-03T05:51:49.815Z,0
2016-03-03T05:52:49.770Z,0
2016-03-03T05:53:49.742Z,0
2016-03-03T05:54:49.729Z,0
2016-03-03T05:55:49.700Z,0
2016-03-03T05:56:49.671Z,0
2016-03-03T05:57:49.658Z,0
2016-03-03T05:58:49.614Z,0
2016-03-03T05:59:49.586Z,0
2016-03-03T06:00:49.557Z,0
2016-03-03T06:01:49.544Z,0
2016-03-03T06:02:49.500Z,0
2016-03-03T06:03:49.471Z,5
2016-03-03T06:04:49.442Z,5
2016-03-03T06:05:49.414Z,5
2016-03-03T06:06:49.385Z,5
2016-03-03T06:07:49.342Z,5
2016-03-03T06:08:49.313Z,10
2016-03-03T06:09:49.299Z,10
2016-03-03T06:10:49.271Z,10
2016-03-03T06:11:49.227Z,10
2016-03-03T06:12:49.213Z,10
2016-03-03T06:13:49.170Z,10
2016-03-03T06:14:49.173Z,15
2016-03-03T06:15:49.129Z,15
2016-03-03T06:16:49.099Z,20
2016-03-03T06:17:49.072Z,20
2016-03-03T06:18:49.121Z,20
2016-03-03T06:19:49.515Z,25
2016-03-03T06:20:49.205Z,25
2016-03-03T06:21:48.974Z,25
2016-03-03T06:22:48.929Z,30
2016-03-03T06:23:48.901Z,35
2016-03-03T06:24:48.871Z,35
2016-03-03T06:25:48.828Z,40
2016-03-03T06:26:48.815Z,45
2016-03-03T06:27:48.770Z,45
2016-03-03T06:28:48.757Z,50
2016-03-03T06:29:48.714Z,50
2016-03-03T06:30:48.700Z,55
2016-03-03T06:31:48.656Z,55
2016-03-03T06:32:48.659Z,55
2016-03-03T06:33:48.614Z,55
2016-03-03T06:34:48.570Z,60
2016-03-03T06:35:48.558Z,60
2016-03-03T06:36:48.528Z,65
2016-03-03T06:37:48.517Z,70
2016-03-03T06:38:48.472Z,75
2016-03-03T06:39:48.475Z,80
2016-03-03T06:40:48.415Z,85
2016-03-03T06:41:48.403Z,90
2016-03-03T06:42:48.389Z,95
2016-03-03T06:43:48.314Z,105
2016-03-03T06:44:48.300Z,110
2016-03-03T06:45:48.273Z,115
2016-03-03T06:46:48.228Z,120
2016-03-03T06:47:48.231Z,125
2016-03-03T06:48:48.187Z,125
2016-03-03T06:49:48.146Z,130
2016-03-03T06:50:48.133Z,130
2016-03-03T06:51:48.090Z,135
2016-03-03T06:52:48.076Z,140
2016-03-03T06:53:48.032Z,140
2016-03-03T06:54:48.020Z,145
2016-03-03T06:55:47.991Z,150
2016-03-03T06:56:47.947Z,155
2016-03-03T06:57:47.949Z,155
2016-03-03T06:58:47.889Z,160
2016-03-03T06:59:47.861Z,160
2016-03-03T07:00:47.847Z,160
2016-03-03T07:01:47.804Z,160
2016-03-03T07:02:47.791Z,165
2016-03-03T07:03:47.763Z,165
2016-03-03T07:04:47.734Z,170
2016-03-03T07:05:47.705Z,175
2016-03-03T07:06:47.692Z,180
2016-03-03T07:07:47.632Z,185
2016-03-03T07:08:47.636Z,190
2016-03-03T07:09:47.575Z,200
2016-03-03T07:10:47.562Z,205
2016-03-03T07:11:47.550Z,205
2016-03-03T07:12:47.505Z,210
2016-03-03T07:13:47.493Z,210
2016-03-03T07:14:47.449Z,210
2016-03-03T07:15:47.295Z,210
2016-03-03T07:16:47.390Z,220
2016-03-03T07:17:47.378Z,225
2016-03-03T07:18:47.334Z,220
2016-03-03T07:19:47.321Z,220
2016-03-03T07:20:47.276Z,220
2016-03-03T07:21:47.279Z,215
2016-03-03T07:22:47.220Z,215
2016-03-03T07:23:47.206Z,210
2016-03-03T07:24:47.179Z,215
2016-03-03T07:25:47.181Z,220
2016-03-03T07:26:47.105Z,220
2016-03-03T07:27:47.077Z,225
2016-03-03T07:28:47.658Z,225
2016-03-03T07:29:47.020Z,230
2016-03-03T07:30:47.006Z,235
2016-03-03T07:31:46.978Z,240
2016-03-03T07:32:46.950Z,245
2016-03-03T07:33:46.922Z,245
2016-03-03T07:34:46.893Z,250
2016-03-03T07:35:46.864Z,255
2016-03-03T07:36:46.851Z,255
2016-03-03T07:37:46.807Z,255
2016-03-03T07:38:46.778Z,255
2016-03-03T07:39:46.750Z,255
2016-03-03T07:40:46.737Z,255
2016-03-03T07:41:46.693Z,255
2016-03-03T07:42:46.664Z,255
2016-03-03T07:43:46.651Z,260
2016-03-03T07:44:46.624Z,260
2016-03-03T07:45:46.579Z,260
2016-03-03T07:46:46.549Z,265
2016-03-03T07:47:46.521Z,265
2016-03-03T07:48:46.509Z,265
2016-03-03T07:49:46.479Z,265
2016-03-03T07:50:46.435Z,270
2016-03-03T07:51:46.407Z,270
2016-03-03T07:52:46.394Z,270
2016-03-03T07:53:46.350Z,270
2016-03-03T07:54:46.353Z,275
2016-03-03T07:55:46.293Z,275
2016-03-03T07:56:46.358Z,280
2016-03-03T07:57:46.251Z,285
2016-03-03T07:58:46.223Z,280
2016-03-03T07:59:46.194Z,285
2016-03-03T08:00:46.197Z,285
2016-03-03T08:01:46.121Z,285
2016-03-03T08:02:46.124Z,295
2016-03-03T08:03:46.096Z,300
2016-03-03T08:04:46.052Z,285
2016-03-03T08:05:46.055Z,300
2016-03-03T08:06:45.978Z,300
2016-03-03T08:07:45.950Z,295
2016-03-03T08:08:45.938Z,295
2016-03-03T08:09:45.908Z,295
2016-03-03T08:10:45.896Z,295
2016-03-03T08:11:45.852Z,295
2016-03-03T08:12:45.807Z,295
2016-03-03T08:13:45.810Z,295
2016-03-03T08:14:45.766Z,295
2016-03-03T08:15:45.752Z,305
2016-03-03T08:16:45.709Z,340
2016-03-03T08:17:45.696Z,340
2016-03-03T08:18:45.667Z,325
2016-03-03T08:19:45.670Z,335
2016-03-03T08:20:45.610Z,365
2016-03-03T08:21:45.566Z,360
2016-03-03T08:22:45.553Z,335
2016-03-03T08:23:45.509Z,310
2016-03-03T08:24:45.574Z,310
2016-03-03T08:25:45.451Z,320
2016-03-03T08:26:45.486Z,330
2016-03-03T08:27:45.535Z,335
2016-03-03T08:28:45.397Z,355
2016-03-03T08:29:45.462Z,375
2016-03-03T08:30:45.356Z,375
2016-03-03T08:31:45.389Z,410
2016-03-03T08:32:45.518Z,435
2016-03-03T08:33:45.239Z,450
2016-03-03T08:34:45.054Z,465
2016-03-03T08:35:45.181Z,465
2016-03-03T08:36:45.153Z,485
2016-03-03T08:37:45.141Z,490
2016-03-03T08:38:45.096Z,465
2016-03-03T08:39:45.083Z,450
2016-03-03T08:40:45.055Z,445
2016-03-03T08:41:45.026Z,455
2016-03-03T08:42:44.982Z,470
2016-03-03T08:43:44.969Z,475
2016-03-03T08:44:44.940Z,490
2016-03-03T08:45:44.958Z,510
2016-03-03T08:46:44.868Z,520
2016-03-03T08:47:44.870Z,530
2016-03-03T08:48:44.826Z,535
2016-03-03T08:49:44.782Z,550
2016-03-03T08:50:44.800Z,565
2016-03-03T08:51:44.740Z,580
2016-03-03T08:52:44.712Z,590
2016-03-03T08:53:44.684Z,595
2016-03-03T08:54:44.514Z,605
2016-03-03T08:55:44.642Z,615
2016-03-03T08:56:44.613Z,615
2016-03-03T08:57:44.584Z,625
2016-03-03T08:58:44.618Z,630
2016-03-03T08:59:44.528Z,635
2016-03-03T09:00:44.530Z,630
2016-03-03T09:01:44.471Z,625
2016-03-03T09:02:44.489Z,620
2016-03-03T09:03:44.413Z,620
2016-03-03T09:04:44.400Z,610
2016-03-03T09:05:44.387Z,605
2016-03-03T09:06:44.343Z,600
2016-03-03T09:07:44.330Z,605
2016-03-03T09:08:44.302Z,605
2016-03-03T09:09:44.273Z,610
2016-03-03T09:10:44.276Z,615
2016-03-03T09:11:44.247Z,615
2016-03-03T09:12:44.187Z,620
2016-03-03T09:13:44.191Z,635
2016-03-03T09:14:44.146Z,640
2016-03-03T09:15:44.164Z,660
2016-03-03T09:16:44.088Z,665
2016-03-03T09:17:44.076Z,670
2016-03-03T09:18:44.047Z,675
2016-03-03T09:19:44.019Z,680
2016-03-03T09:20:43.990Z,680
2016-03-03T09:21:44.009Z,680
2016-03-03T09:22:44.027Z,680
2016-03-03T09:23:43.920Z,675
2016-03-03T09:24:43.907Z,680
2016-03-03T09:25:43.862Z,675
2016-03-03T09:26:43.850Z,685
2016-03-03T09:27:43.853Z,685
2016-03-03T09:28:43.793Z,695
2016-03-03T09:29:43.764Z,700
2016-03-03T09:30:43.751Z,710
2016-03-03T09:31:43.723Z,725
2016-03-03T09:32:43.709Z,730
2016-03-03T09:33:43.728Z,730
2016-03-03T09:34:43.668Z,715
2016-03-03T09:35:43.625Z,690
2016-03-03T09:36:43.892Z,660
2016-03-03T09:37:43.598Z,645
2016-03-03T09:38:43.570Z,635
2016-03-03T09:39:43.541Z,635
2016-03-03T09:40:43.513Z,635
2016-03-03T09:41:43.484Z,640
2016-03-03T09:42:43.471Z,650
2016-03-03T09:43:43.427Z,655
2016-03-03T09:44:43.430Z,665
2016-03-03T09:45:43.385Z,680
2016-03-03T09:46:43.389Z,705
2016-03-03T09:47:43.329Z,735
2016-03-03T09:48:43.332Z,765
2016-03-03T09:49:43.287Z,800
2016-03-03T09:50:43.383Z,810
2016-03-03T09:51:43.260Z,825
2016-03-03T09:52:43.217Z,830
2016-03-03T09:53:43.188Z,835
2016-03-03T09:54:43.191Z,825
2016-03-03T09:55:43.146Z,805
2016-03-03T09:56:43.118Z,800
2016-03-03T09:57:43.168Z,795
2016-03-03T09:58:43.062Z,795
2016-03-03T09:59:43.064Z,795
2016-03-03T10:00:43.035Z,785
2016-03-03T10:01:43.023Z,770
2016-03-03T10:02:42.978Z,755
2016-03-03T10:03:42.965Z,720
2016-03-03T10:04:42.953Z,705
2016-03-03T10:05:42.814Z,700
2016-03-03T10:06:42.880Z,695
2016-03-03T10:07:42.710Z,705
2016-03-03T10:08:42.853Z,695
2016-03-03T10:09:42.825Z,695
2016-03-03T10:10:42.843Z,690
2016-03-03T10:11:42.815Z,685
2016-03-03T10:12:42.755Z,680
2016-03-03T10:13:42.789Z,700
2016-03-03T10:14:42.713Z,715
2016-03-03T10:15:42.544Z,730
2016-03-03T10:16:42.656Z,745
2016-03-03T10:17:42.659Z,750
2016-03-03T10:18:42.615Z,765
2016-03-03T10:19:42.585Z,770
2016-03-03T10:20:42.573Z,790
2016-03-03T10:21:42.560Z,810
2016-03-03T10:22:42.516Z,840
2016-03-03T10:23:42.550Z,855
2016-03-03T10:24:42.490Z,865
2016-03-03T10:25:42.446Z,870
2016-03-03T10:26:42.417Z,875
2016-03-03T10:27:42.420Z,870
2016-03-03T10:28:42.376Z,870
2016-03-03T10:29:42.362Z,855
2016-03-03T10:30:42.350Z,845
2016-03-03T10:31:42.306Z,840
2016-03-03T10:32:42.308Z,815
2016-03-03T10:33:42.264Z,795
2016-03-03T10:34:42.251Z,780
2016-03-03T10:35:42.222Z,775
2016-03-03T10:36:42.194Z,760
2016-03-03T10:37:42.197Z,750
2016-03-03T10:38:42.153Z,745
2016-03-03T10:39:42.171Z,740
2016-03-03T10:40:42.096Z,725
2016-03-03T10:41:42.083Z,720
2016-03-03T10:42:42.116Z,720
2016-03-03T10:43:42.479Z,710
2016-03-03T10:44:42.028Z,715
2016-03-03T10:45:42.015Z,695
2016-03-03T10:46:42.018Z,685
2016-03-03T10:47:41.958Z,675
2016-03-03T10:48:41.945Z,665
2016-03-03T10:49:41.901Z,655
2016-03-03T10:50:41.904Z,635
2016-03-03T10:51:41.860Z,630
2016-03-03T10:52:41.831Z,620
2016-03-03T10:53:41.818Z,625
2016-03-03T10:54:41.790Z,655
2016-03-03T10:55:41.792Z,695
2016-03-03T10:56:41.764Z,715
2016-03-03T10:57:41.735Z,745
2016-03-03T10:58:41.706Z,790
2016-03-03T10:59:41.678Z,830
2016-03-03T11:00:41.650Z,830
2016-03-03T11:01:41.745Z,825
2016-03-03T11:02:42.561Z,825
2016-03-03T11:03:41.579Z,795
2016-03-03T11:04:41.566Z,745
2016-03-03T11:05:41.569Z,750
2016-03-03T11:06:41.525Z,790
2016-03-03T11:07:41.512Z,825
2016-03-03T11:08:41.467Z,880
2016-03-03T11:09:41.470Z,915
2016-03-03T11:10:41.427Z,920
2016-03-03T11:11:41.397Z,915
2016-03-03T11:12:41.464Z,915
2016-03-03T11:13:41.333Z,905
2016-03-03T11:14:41.351Z,890
2016-03-03T11:15:45.572Z,870
2016-03-03T11:16:41.307Z,850
2016-03-03T11:17:41.574Z,835
2016-03-03T11:18:41.249Z,805
2016-03-03T11:19:41.237Z,765
2016-03-03T11:20:41.208Z,730
2016-03-03T11:21:41.179Z,700
2016-03-03T11:22:41.168Z,685
2016-03-03T11:23:41.138Z,675
2016-03-03T11:24:41.140Z,670
2016-03-03T11:25:40.957Z,665
2016-03-03T11:26:40.974Z,655
2016-03-03T11:27:41.039Z,650
2016-03-03T11:28:41.027Z,650
2016-03-03T11:29:41.014Z,645
2016-03-03T11:30:40.985Z,650
2016-03-03T11:31:40.956Z,660
2016-03-03T11:32:40.944Z,685
2016-03-03T11:33:40.915Z,720
2016-03-03T11:34:40.902Z,765
2016-03-03T11:35:40.873Z,830
2016-03-03T11:36:40.845Z,905
2016-03-03T11:37:40.817Z,970
2016-03-03T11:38:40.803Z,1030
2016-03-03T11:39:40.775Z,1070
2016-03-03T11:40:40.841Z,1100
2016-03-03T11:41:40.764Z,1110
2016-03-03T11:42:40.736Z,1100
2016-03-03T11:43:40.708Z,1085
2016-03-03T11:44:40.897Z,1060
2016-03-03T11:45:40.713Z,1045
2016-03-03T11:46:40.622Z,1050
2016-03-03T11:47:40.655Z,1080
2016-03-03T11:48:40.580Z,1105
2016-03-03T11:49:40.552Z,1130
2016-03-03T11:50:40.570Z,1140
2016-03-03T11:51:40.526Z,1130
2016-03-03T11:52:40.513Z,1130
2016-03-03T11:53:40.454Z,1135
2016-03-03T11:54:40.456Z,1120
2016-03-03T11:55:40.441Z,1105
2016-03-03T11:56:40.498Z,1095
2016-03-03T11:57:40.537Z,1075
2016-03-03T11:58:40.345Z,1060
2016-03-03T11:59:40.373Z,1055
2016-03-03T12:00:40.369Z,1030
2016-03-03T12:01:40.259Z,1015
2016-03-03T12:02:40.242Z,980
2016-03-03T12:03:40.165Z,950
2016-03-03T12:04:40.180Z,895
2016-03-03T12:05:40.164Z,850
2016-03-03T12:06:40.166Z,810
2016-03-03T12:07:40.167Z,780
2016-03-03T12:08:40.091Z,775
2016-03-03T12:09:40.092Z,765
2016-03-03T12:10:40.093Z,785
2016-03-03T12:11:40.065Z,800
2016-03-03T12:12:40.020Z,805
2016-03-03T12:13:39.991Z,835
2016-03-03T12:14:39.978Z,875
2016-03-03T12:15:39.934Z,880
2016-03-03T12:16:40.092Z,860
2016-03-03T12:17:39.907Z,855
2016-03-03T12:18:39.894Z,845
2016-03-03T12:19:39.848Z,845
2016-03-03T12:20:39.836Z,875
2016-03-03T12:21:39.823Z,895
2016-03-03T12:22:39.809Z,910
2016-03-03T12:23:39.765Z,900
2016-03-03T12:24:39.783Z,895
2016-03-03T12:25:40.256Z,875
2016-03-03T12:26:39.789Z,875
2016-03-03T12:27:39.901Z,870
2016-03-03T12:28:39.669Z,865
2016-03-03T12:29:39.672Z,860
2016-03-03T12:30:39.628Z,840
2016-03-03T12:31:39.631Z,835
2016-03-03T12:32:39.618Z,860
2016-03-03T12:33:39.589Z,895
2016-03-03T12:34:39.561Z,870
2016-03-03T12:35:39.564Z,840
2016-03-03T12:36:39.535Z,800
2016-03-03T12:37:39.491Z,770
2016-03-03T12:38:39.493Z,790
2016-03-03T12:39:39.480Z,820
2016-03-03T12:40:39.452Z,815
2016-03-03T12:41:39.720Z,860
2016-03-03T12:42:39.396Z,895
2016-03-03T12:43:38.648Z,895
2016-03-03T12:44:39.384Z,885
2016-03-03T12:45:39.341Z,865
2016-03-03T12:46:39.312Z,875
2016-03-03T12:47:39.298Z,865
2016-03-03T12:48:39.270Z,845
2016-03-03T12:49:39.335Z,845
2016-03-03T12:50:39.229Z,845
2016-03-03T12:51:39.075Z,840
2016-03-03T12:52:39.172Z,910
2016-03-03T12:53:39.206Z,980
2016-03-03T12:54:39.145Z,1030
2016-03-03T12:55:39.133Z,1045
2016-03-03T12:56:39.136Z,1065
2016-03-03T12:57:39.076Z,1035
2016-03-03T12:58:39.047Z,980
2016-03-03T12:59:39.191Z,950
2016-03-03T13:00:39.006Z,905
2016-03-03T13:01:38.992Z,880
2016-03-03T13:02:38.980Z,835
2016-03-03T13:03:38.966Z,785
2016-03-03T13:04:38.986Z,740
2016-03-03T13:05:38.941Z,740
2016-03-03T13:06:38.881Z,740
2016-03-03T13:07:40.102Z,750
2016-03-03T13:08:38.840Z,760
2016-03-03T13:09:38.843Z,780
2016-03-03T13:10:38.814Z,785
2016-03-03T13:11:38.785Z,790
2016-03-03T13:12:38.788Z,800
2016-03-03T13:13:38.790Z,800
2016-03-03T13:14:38.762Z,750
2016-03-03T13:15:38.702Z,700
2016-03-03T13:16:38.673Z,690
2016-03-03T13:17:38.660Z,640
2016-03-03T13:18:38.632Z,600
2016-03-03T13:19:38.635Z,570
2016-03-03T13:20:38.622Z,560
2016-03-03T13:21:38.578Z,555
2016-03-03T13:22:38.549Z,555
2016-03-03T13:23:38.536Z,555
2016-03-03T13:24:38.508Z,555
2016-03-03T13:25:38.526Z,540
2016-03-03T13:26:38.528Z,515
2016-03-03T13:27:38.437Z,510
2016-03-03T13:28:38.440Z,520
2016-03-03T13:29:38.397Z,530
2016-03-03T13:30:38.368Z,525
2016-03-03T13:31:38.371Z,545
2016-03-03T13:32:38.342Z,565
2016-03-03T13:33:38.314Z,580
2016-03-03T13:34:38.301Z,605
2016-03-03T13:35:38.303Z,630
2016-03-03T13:36:38.244Z,665
2016-03-03T13:37:38.246Z,715
2016-03-03T13:38:38.202Z,760
2016-03-03T13:39:38.189Z,815
2016-03-03T13:40:38.160Z,870
2016-03-03T13:41:38.147Z,870
2016-03-03T13:42:37.807Z,865
2016-03-03T13:43:38.595Z,820
2016-03-03T13:44:38.066Z,740
2016-03-03T13:45:38.036Z,720
2016-03-03T13:46:38.024Z,725
2016-03-03T13:47:37.995Z,715
2016-03-03T13:48:37.982Z,685
2016-03-03T13:49:37.939Z,640
2016-03-03T13:50:37.925Z,610
2016-03-03T13:51:37.927Z,565
2016-03-03T13:52:37.883Z,550
2016-03-03T13:53:38.058Z,540
2016-03-03T13:54:37.858Z,515
2016-03-03T13:55:37.814Z,455
2016-03-03T13:56:37.802Z,415
2016-03-03T13:57:37.772Z,390
2016-03-03T13:58:37.743Z,375
2016-03-03T13:59:37.762Z,365
2016-03-03T14:00:37.702Z,375
2016-03-03T14:01:37.674Z,360
2016-03-03T14:02:37.660Z,360
2016-03-03T14:03:37.632Z,365
2016-03-03T14:04:37.620Z,370
2016-03-03T14:05:37.590Z,410
2016-03-03T14:06:37.594Z,385
2016-03-03T14:07:37.549Z,360
2016-03-03T14:08:37.537Z,330
2016-03-03T14:09:37.508Z,310
2016-03-03T14:10:37.479Z,305